sensor_id;sensor_type;location;lat;lon;timestamp;pressure;altitude;pressure_sealevel;temperature;humidity
20156;BME280;10238;49.556;10.956;2023-04-19T00:00:10;98988.72;;;7.29;100.00
20156;BME280;10238;49.556;10.956;2023-04-19T00:03:13;98999.53;;;7.26;100.00
20156;BME280;10238;49.556;10.956;2023-04-19T00:06:03;98994.47;;;7.23;100.00
20156;BME280;10238;49.556;10.956;2023-04-19T00:08:50;98989.78;;;7.15;100.00
20156;BME280;10238;49.556;10.956;2023-04-19T00:11:38;98992.06;;;7.09;100.00
20156;BME280;10238;49.556;10.956;2023-04-19T00:14:26;98990.41;;;7.08;100.00
20156;BME280;10238;49.556;10.956;2023-04-19T00:17:13;98987.75;;;7.08;100.00
20156;BME280;10238;49.556;10.956;2023-04-19T00:20:01;98978.84;;;7.09;100.00
20156;BME280;10238;49.556;10.956;2023-04-19T00:22:51;98985.09;;;7.08;100.00
20156;BME280;10238;49.556;10.956;2023-04-19T00:25:39;98983.28;;;7.08;100.00
20156;BME280;10238;49.556;10.956;2023-04-19T00:28:27;98982.69;;;7.05;100.00
20156;BME280;10238;49.556;10.956;2023-04-19T00:31:15;98976.44;;;7.06;100.00
20156;BME280;10238;49.556;10.956;2023-04-19T00:34:02;98973.19;;;7.02;100.00
20156;BME280;10238;49.556;10.956;2023-04-19T00:36:50;98976.44;;;7.06;100.00
20156;BME280;10238;49.556;10.956;2023-04-19T00:39:39;98978.13;;;7.07;100.00
20156;BME280;10238;49.556;10.956;2023-04-19T00:42:26;98972.34;;;7.02;100.00
20156;BME280;10238;49.556;10.956;2023-04-19T00:45:14;98966.44;;;6.98;100.00
20156;BME280;10238;49.556;10.956;2023-04-19T00:48:02;98968.34;;;6.96;100.00
20156;BME280;10238;49.556;10.956;2023-04-19T00:50:49;98958.75;;;6.95;100.00
20156;BME280;10238;49.556;10.956;2023-04-19T00:53:37;98951.91;;;6.93;100.00
20156;BME280;10238;49.556;10.956;2023-04-19T00:56:29;98955.03;;;6.87;100.00
20156;BME280;10238;49.556;10.956;2023-04-19T00:59:17;98953.59;;;6.83;100.00
20156;BME280;10238;49.556;10.956;2023-04-19T01:02:05;98957.50;;;6.77;100.00
20156;BME280;10238;49.556;10.956;2023-04-19T01:04:53;98959.78;;;6.71;100.00
20156;BME280;10238;49.556;10.956;2023-04-19T01:07:44;98954.13;;;6.64;100.00
20156;BME280;10238;49.556;10.956;2023-04-19T01:10:32;98958.28;;;6.55;100.00
20156;BME280;10238;49.556;10.956;2023-04-19T01:13:21;98953.47;;;6.49;100.00
20156;BME280;10238;49.556;10.956;2023-04-19T01:16:09;98947.69;;;6.44;100.00
20156;BME280;10238;49.556;10.956;2023-04-19T01:18:57;98953.44;;;6.38;100.00
20156;BME280;10238;49.556;10.956;2023-04-19T01:21:45;98951.25;;;6.32;100.00
20156;BME280;10238;49.556;10.956;2023-04-19T01:24:34;98949.06;;;6.26;100.00
20156;BME280;10238;49.556;10.956;2023-04-19T01:27:21;98945.09;;;6.21;100.00
20156;BME280;10238;49.556;10.956;2023-04-19T01:30:10;98942.78;;;6.16;100.00
20156;BME280;10238;49.556;10.956;2023-04-19T01:32:57;98935.41;;;6.09;100.00
20156;BME280;10238;49.556;10.956;2023-04-19T01:35:46;98933.97;;;6.05;100.00
20156;BME280;10238;49.556;10.956;2023-04-19T01:38:34;98931.22;;;6.06;100.00
20156;BME280;10238;49.556;10.956;2023-04-19T01:41:23;98931.22;;;6.06;100.00
20156;BME280;10238;49.556;10.956;2023-04-19T01:44:12;98928.81;;;6.03;100.00
20156;BME280;10238;49.556;10.956;2023-04-19T01:47:00;98931.44;;;6.03;100.00
20156;BME280;10238;49.556;10.956;2023-04-19T01:49:47;98930.94;;;5.98;100.00
20156;BME280;10238;49.556;10.956;2023-04-19T01:52:35;98923.44;;;5.92;100.00
20156;BME280;10238;49.556;10.956;2023-04-19T01:55:24;98923.69;;;5.89;100.00
20156;BME280;10238;49.556;10.956;2023-04-19T01:58:13;98924.63;;;5.88;100.00
20156;BME280;10238;49.556;10.956;2023-04-19T02:01:01;98916.34;;;5.82;100.00
20156;BME280;10238;49.556;10.956;2023-04-19T02:03:48;98920.53;;;5.84;100.00
20156;BME280;10238;49.556;10.956;2023-04-19T02:06:36;98932.25;;;5.80;100.00
20156;BME280;10238;49.556;10.956;2023-04-19T02:09:24;98929.72;;;5.79;100.00
20156;BME280;10238;49.556;10.956;2023-04-19T02:12:11;98928.75;;;5.80;100.00
20156;BME280;10238;49.556;10.956;2023-04-19T02:15:00;98918.22;;;5.80;100.00
20156;BME280;10238;49.556;10.956;2023-04-19T02:17:48;98916.44;;;5.80;100.00
20156;BME280;10238;49.556;10.956;2023-04-19T02:20:36;98917.16;;;5.82;100.00
20156;BME280;10238;49.556;10.956;2023-04-19T02:23:23;98909.13;;;5.84;100.00
20156;BME280;10238;49.556;10.956;2023-04-19T02:26:11;98902.78;;;5.86;100.00
20156;BME280;10238;49.556;10.956;2023-04-19T02:28:59;98897.50;;;5.86;100.00
20156;BME280;10238;49.556;10.956;2023-04-19T02:31:48;98894.88;;;5.86;100.00
20156;BME280;10238;49.556;10.956;2023-04-19T02:34:36;98897.97;;;5.80;100.00
20156;BME280;10238;49.556;10.956;2023-04-19T02:37:24;98885.94;;;5.76;100.00
20156;BME280;10238;49.556;10.956;2023-04-19T02:40:11;98884.47;;;5.72;100.00
20156;BME280;10238;49.556;10.956;2023-04-19T02:42:58;98889.00;;;5.70;100.00
20156;BME280;10238;49.556;10.956;2023-04-19T02:45:46;98886.47;;;5.69;100.00
20156;BME280;10238;49.556;10.956;2023-04-19T02:48:35;98882.16;;;5.68;100.00
20156;BME280;10238;49.556;10.956;2023-04-19T02:51:23;98884.09;;;5.66;100.00
20156;BME280;10238;49.556;10.956;2023-04-19T02:54:13;98874.59;;;5.63;100.00
20156;BME280;10238;49.556;10.956;2023-04-19T02:57:01;98883.91;;;5.56;100.00
20156;BME280;10238;49.556;10.956;2023-04-19T02:59:48;98878.63;;;5.56;100.00
20156;BME280;10238;49.556;10.956;2023-04-19T03:02:36;98869.03;;;5.55;100.00
20156;BME280;10238;49.556;10.956;2023-04-19T03:05:26;98864.69;;;5.54;100.00
20156;BME280;10238;49.556;10.956;2023-04-19T03:08:13;98867.66;;;5.50;100.00
20156;BME280;10238;49.556;10.956;2023-04-19T03:11:01;98866.00;;;5.49;100.00
20156;BME280;10238;49.556;10.956;2023-04-19T03:13:48;98860.13;;;5.45;100.00
20156;BME280;10238;49.556;10.956;2023-04-19T03:16:35;98861.16;;;5.43;100.00
20156;BME280;10238;49.556;10.956;2023-04-19T03:19:24;98859.81;;;5.37;100.00
20156;BME280;10238;49.556;10.956;2023-04-19T03:22:13;98859.28;;;5.32;100.00
20156;BME280;10238;49.556;10.956;2023-04-19T03:25:00;98860.25;;;5.31;100.00
20156;BME280;10238;49.556;10.956;2023-04-19T03:27:48;98855.31;;;5.27;100.00
20156;BME280;10238;49.556;10.956;2023-04-19T03:30:37;98845.84;;;5.24;100.00
20156;BME280;10238;49.556;10.956;2023-04-19T03:33:24;98842.44;;;5.22;100.00
20156;BME280;10238;49.556;10.956;2023-04-19T03:36:12;98834.88;;;5.18;100.00
20156;BME280;10238;49.556;10.956;2023-04-19T03:39:02;98836.16;;;5.12;100.00
20156;BME280;10238;49.556;10.956;2023-04-19T03:41:49;98833.03;;;5.07;100.00
20156;BME280;10238;49.556;10.956;2023-04-19T03:44:37;98835.13;;;5.02;100.00
20156;BME280;10238;49.556;10.956;2023-04-19T03:47:24;98831.75;;;5.00;100.00
20156;BME280;10238;49.556;10.956;2023-04-19T03:50:12;98821.44;;;4.97;100.00
20156;BME280;10238;49.556;10.956;2023-04-19T03:52:59;98822.06;;;5.01;100.00
20156;BME280;10238;49.556;10.956;2023-04-19T03:55:49;98824.59;;;5.02;100.00
20156;BME280;10238;49.556;10.956;2023-04-19T03:58:36;98824.06;;;4.97;100.00
20156;BME280;10238;49.556;10.956;2023-04-19T04:01:27;98818.09;;;4.95;100.00
20156;BME280;10238;49.556;10.956;2023-04-19T04:04:14;98818.09;;;4.95;100.00
20156;BME280;10238;49.556;10.956;2023-04-19T04:07:03;98819.97;;;4.93;100.00
20156;BME280;10238;49.556;10.956;2023-04-19T04:09:50;98820.19;;;4.90;100.00
20156;BME280;10238;49.556;10.956;2023-04-19T04:12:39;98818.41;;;4.91;100.00
20156;BME280;10238;49.556;10.956;2023-04-19T04:15:27;98816.72;;;4.90;100.00
20156;BME280;10238;49.556;10.956;2023-04-19T04:18:15;98822.72;;;4.92;100.00
20156;BME280;10238;49.556;10.956;2023-04-19T04:21:03;98822.09;;;4.88;100.00
20156;BME280;10238;49.556;10.956;2023-04-19T04:23:51;98822.09;;;4.88;100.00
20156;BME280;10238;49.556;10.956;2023-04-19T04:26:38;98822.09;;;4.88;100.00
20156;BME280;10238;49.556;10.956;2023-04-19T04:29:27;98815.78;;;4.91;100.00
20156;BME280;10238;49.556;10.956;2023-04-19T04:32:15;98814.69;;;4.93;100.00
20156;BME280;10238;49.556;10.956;2023-04-19T04:35:05;98819.88;;;4.95;100.00
20156;BME280;10238;49.556;10.956;2023-04-19T04:37:53;98819.53;;;4.99;100.00
20156;BME280;10238;49.556;10.956;2023-04-19T04:40:40;98825.44;;;5.03;100.00
20156;BME280;10238;49.556;10.956;2023-04-19T04:43:28;98823.84;;;5.13;100.00
20156;BME280;10238;49.556;10.956;2023-04-19T04:46:17;98829.81;;;5.15;100.00
20156;BME280;10238;49.556;10.956;2023-04-19T04:49:04;98834.06;;;5.17;100.00
20156;BME280;10238;49.556;10.956;2023-04-19T04:51:52;98825.63;;;5.12;100.00
20156;BME280;10238;49.556;10.956;2023-04-19T04:54:40;98833.03;;;5.07;100.00
20156;BME280;10238;49.556;10.956;2023-04-19T04:57:28;98831.31;;;5.06;100.00
20156;BME280;10238;49.556;10.956;2023-04-19T05:00:16;98826.25;;;5.16;100.00
20156;BME280;10238;49.556;10.956;2023-04-19T05:03:05;98829.28;;;5.22;100.00
20156;BME280;10238;49.556;10.956;2023-04-19T05:05:55;98833.66;;;5.34;100.00
20156;BME280;10238;49.556;10.956;2023-04-19T05:08:44;98823.66;;;5.39;100.00
20156;BME280;10238;49.556;10.956;2023-04-19T05:11:31;98813.59;;;5.44;100.00
20156;BME280;10238;49.556;10.956;2023-04-19T05:14:19;98818.31;;;5.52;100.00
20156;BME280;10238;49.556;10.956;2023-04-19T05:17:07;98817.75;;;5.59;100.00
20156;BME280;10238;49.556;10.956;2023-04-19T05:19:57;98821.63;;;5.66;100.00
20156;BME280;10238;49.556;10.956;2023-04-19T05:22:45;98821.19;;;5.72;100.00
20156;BME280;10238;49.556;10.956;2023-04-19T05:25:35;98813.56;;;5.80;100.00
20156;BME280;10238;49.556;10.956;2023-04-19T05:28:23;98809.53;;;5.87;100.00
20156;BME280;10238;49.556;10.956;2023-04-19T05:31:11;98808.34;;;5.91;100.00
20156;BME280;10238;49.556;10.956;2023-04-19T05:33:59;98799.09;;;5.97;100.00
20156;BME280;10238;49.556;10.956;2023-04-19T05:36:48;98801.19;;;6.04;100.00
20156;BME280;10238;49.556;10.956;2023-04-19T05:39:35;98799.75;;;6.11;100.00
20156;BME280;10238;49.556;10.956;2023-04-19T05:42:23;98795.56;;;6.20;100.00
20156;BME280;10238;49.556;10.956;2023-04-19T05:45:11;98789.69;;;6.27;100.00
20156;BME280;10238;49.556;10.956;2023-04-19T05:48:01;98794.53;;;6.33;100.00
20156;BME280;10238;49.556;10.956;2023-04-19T05:51:04;98797.66;;;6.49;100.00
20156;BME280;10238;49.556;10.956;2023-04-19T05:53:56;98795.75;;;6.51;100.00
20156;BME280;10238;49.556;10.956;2023-04-19T05:56:43;98785.53;;;6.58;100.00
20156;BME280;10238;49.556;10.956;2023-04-19T05:59:31;98793.94;;;6.74;100.00
20156;BME280;10238;49.556;10.956;2023-04-19T06:02:19;98798.88;;;6.79;100.00
20156;BME280;10238;49.556;10.956;2023-04-19T06:05:07;98790.94;;;6.90;100.00
20156;BME280;10238;49.556;10.956;2023-04-19T06:07:56;98789.22;;;7.11;100.00
20156;BME280;10238;49.556;10.956;2023-04-19T06:10:49;98792.28;;;7.06;100.00
20156;BME280;10238;49.556;10.956;2023-04-19T06:13:43;98798.63;;;7.15;100.00
20156;BME280;10238;49.556;10.956;2023-04-19T06:16:31;98796.06;;;7.24;100.00
20156;BME280;10238;49.556;10.956;2023-04-19T06:19:19;98792.31;;;7.27;100.00
20156;BME280;10238;49.556;10.956;2023-04-19T06:22:06;98801.44;;;7.45;100.00
20156;BME280;10238;49.556;10.956;2023-04-19T06:24:54;98796.81;;;7.58;100.00
20156;BME280;10238;49.556;10.956;2023-04-19T06:27:43;98803.16;;;7.66;100.00
20156;BME280;10238;49.556;10.956;2023-04-19T06:30:31;98797.06;;;7.55;100.00
20156;BME280;10238;49.556;10.956;2023-04-19T06:33:18;98796.31;;;7.64;100.00
20156;BME280;10238;49.556;10.956;2023-04-19T06:36:06;98787.03;;;7.69;100.00
20156;BME280;10238;49.556;10.956;2023-04-19T06:38:54;98781.09;;;7.77;100.00
20156;BME280;10238;49.556;10.956;2023-04-19T06:41:42;98784.78;;;7.85;100.00
20156;BME280;10238;49.556;10.956;2023-04-19T06:44:31;98782.38;;;7.93;100.00
20156;BME280;10238;49.556;10.956;2023-04-19T06:47:19;98784.81;;;8.06;100.00
20156;BME280;10238;49.556;10.956;2023-04-19T06:50:09;98777.13;;;8.03;100.00
20156;BME280;10238;49.556;10.956;2023-04-19T06:52:57;98777.22;;;8.12;100.00
20156;BME280;10238;49.556;10.956;2023-04-19T06:55:45;98764.53;;;8.16;100.00
20156;BME280;10238;49.556;10.956;2023-04-19T06:58:32;98764.53;;;8.16;100.00
20156;BME280;10238;49.556;10.956;2023-04-19T07:01:22;98756.09;;;8.22;100.00
20156;BME280;10238;49.556;10.956;2023-04-19T07:04:11;98754.66;;;8.29;100.00
20156;BME280;10238;49.556;10.956;2023-04-19T07:06:58;98755.00;;;8.45;100.00
20156;BME280;10238;49.556;10.956;2023-04-19T07:09:46;98754.28;;;8.43;100.00
20156;BME280;10238;49.556;10.956;2023-04-19T07:12:35;98750.25;;;8.48;100.00
20156;BME280;10238;49.556;10.956;2023-04-19T07:15:23;98751.66;;;8.52;100.00
20156;BME280;10238;49.556;10.956;2023-04-19T07:18:12;98750.31;;;8.58;100.00
20156;BME280;10238;49.556;10.956;2023-04-19T07:21:01;98749.94;;;8.62;100.00
20156;BME280;10238;49.556;10.956;2023-04-19T07:23:49;98748.56;;;8.68;100.00
20156;BME280;10238;49.556;10.956;2023-04-19T07:26:37;98745.38;;;8.74;100.00
20156;BME280;10238;49.556;10.956;2023-04-19T07:29:24;98740.50;;;8.79;100.00
20156;BME280;10238;49.556;10.956;2023-04-19T07:32:12;98745.41;;;8.83;100.00
20156;BME280;10238;49.556;10.956;2023-04-19T07:35:02;98747.78;;;8.87;100.00
20156;BME280;10238;49.556;10.956;2023-04-19T07:37:50;98743.47;;;8.86;100.00
20156;BME280;10238;49.556;10.956;2023-04-19T07:40:38;98744.72;;;8.91;100.00
20156;BME280;10238;49.556;10.956;2023-04-19T07:43:26;98745.44;;;8.93;100.00
20156;BME280;10238;49.556;10.956;2023-04-19T07:46:14;98745.84;;;8.98;100.00
20156;BME280;10238;49.556;10.956;2023-04-19T07:49:02;98754.66;;;8.99;100.00
20156;BME280;10238;49.556;10.956;2023-04-19T07:51:51;98745.84;;;8.98;100.00
20156;BME280;10238;49.556;10.956;2023-04-19T07:54:39;98748.50;;;8.98;100.00
20156;BME280;10238;49.556;10.956;2023-04-19T07:57:27;98744.63;;;9.02;100.00
20156;BME280;10238;49.556;10.956;2023-04-19T08:00:16;98751.59;;;9.03;100.00
20156;BME280;10238;49.556;10.956;2023-04-19T08:03:04;98749.78;;;9.04;100.00
20156;BME280;10238;49.556;10.956;2023-04-19T08:05:52;98745.31;;;9.04;100.00
20156;BME280;10238;49.556;10.956;2023-04-19T08:08:41;98743.53;;;9.05;100.00
20156;BME280;10238;49.556;10.956;2023-04-19T08:11:29;98742.41;;;9.07;100.00
20156;BME280;10238;49.556;10.956;2023-04-19T08:14:17;98741.53;;;9.07;100.00
20156;BME280;10238;49.556;10.956;2023-04-19T08:17:20;98737.69;;;9.11;100.00
20156;BME280;10238;49.556;10.956;2023-04-19T08:20:14;98741.84;;;9.13;100.00
20156;BME280;10238;49.556;10.956;2023-04-19T08:23:03;98742.44;;;9.17;100.00
20156;BME280;10238;49.556;10.956;2023-04-19T08:26:09;98737.94;;;9.17;100.00
20156;BME280;10238;49.556;10.956;2023-04-19T08:28:56;98746.63;;;9.19;100.00
20156;BME280;10238;49.556;10.956;2023-04-19T08:31:44;98744.50;;;9.23;100.00
20156;BME280;10238;49.556;10.956;2023-04-19T08:34:34;98746.06;;;9.25;100.00
20156;BME280;10238;49.556;10.956;2023-04-19T08:37:22;98749.69;;;9.24;100.00
20156;BME280;10238;49.556;10.956;2023-04-19T08:40:11;98748.03;;;9.23;100.00
20156;BME280;10238;49.556;10.956;2023-04-19T08:43:04;98749.69;;;9.24;100.00
20156;BME280;10238;49.556;10.956;2023-04-19T08:45:54;98754.16;;;9.24;100.00
20156;BME280;10238;49.556;10.956;2023-04-19T08:48:43;98753.59;;;9.20;100.00
20156;BME280;10238;49.556;10.956;2023-04-19T08:51:31;98750.81;;;9.22;100.00
20156;BME280;10238;49.556;10.956;2023-04-19T08:54:21;98753.31;;;9.23;100.00
20156;BME280;10238;49.556;10.956;2023-04-19T08:57:09;98750.13;;;9.20;100.00
20156;BME280;10238;49.556;10.956;2023-04-19T09:00:00;98751.66;;;9.22;100.00
20156;BME280;10238;49.556;10.956;2023-04-19T09:02:52;98753.31;;;9.23;100.00
20156;BME280;10238;49.556;10.956;2023-04-19T09:05:41;98742.56;;;9.25;100.00
20156;BME280;10238;49.556;10.956;2023-04-19T09:08:30;98742.44;;;9.26;100.00
20156;BME280;10238;49.556;10.956;2023-04-19T09:11:17;98743.03;;;9.30;100.00
20156;BME280;10238;49.556;10.956;2023-04-19T09:14:10;98740.78;;;9.35;100.00
20156;BME280;10238;49.556;10.956;2023-04-19T09:17:13;98739.69;;;9.37;100.00
20156;BME280;10238;49.556;10.956;2023-04-19T09:20:05;98729.75;;;9.39;100.00
20156;BME280;10238;49.556;10.956;2023-04-19T09:23:03;98732.13;;;9.42;100.00
20156;BME280;10238;49.556;10.956;2023-04-19T09:25:55;98731.41;;;9.40;100.00
20156;BME280;10238;49.556;10.956;2023-04-19T09:29:04;98726.38;;;9.28;100.00
20156;BME280;10238;49.556;10.956;2023-04-19T09:31:58;98719.38;;;9.08;100.00
20156;BME280;10238;49.556;10.956;2023-04-19T09:34:54;98729.03;;;9.18;100.00
20156;BME280;10238;49.556;10.956;2023-04-19T09:37:42;98709.91;;;9.24;100.00
20156;BME280;10238;49.556;10.956;2023-04-19T09:40:32;98716.19;;;9.23;100.00
20156;BME280;10238;49.556;10.956;2023-04-19T09:43:23;98706.56;;;9.22;100.00
20156;BME280;10238;49.556;10.956;2023-04-19T09:46:33;98714.78;;;9.29;100.00
20156;BME280;10238;49.556;10.956;2023-04-19T09:49:23;98705.03;;;9.39;100.00
20156;BME280;10238;49.556;10.956;2023-04-19T09:52:33;98699.84;;;9.56;100.00
20156;BME280;10238;49.556;10.956;2023-04-19T09:55:22;98704.75;;;9.70;100.00
20156;BME280;10238;49.556;10.956;2023-04-19T09:58:14;98701.94;;;9.81;100.00
20156;BME280;10238;49.556;10.956;2023-04-19T10:01:02;98691.31;;;9.91;100.00
20156;BME280;10238;49.556;10.956;2023-04-19T10:04:03;98696.06;;;10.06;100.00
20156;BME280;10238;49.556;10.956;2023-04-19T10:07:11;98692.97;;;10.20;100.00
20156;BME280;10238;49.556;10.956;2023-04-19T10:10:06;98682.16;;;10.31;100.00
20156;BME280;10238;49.556;10.956;2023-04-19T10:13:09;98686.19;;;10.45;100.00
20156;BME280;10238;49.556;10.956;2023-04-19T10:16:06;98680.00;;;10.54;100.00
20156;BME280;10238;49.556;10.956;2023-04-19T10:19:09;98672.75;;;10.73;100.00
20156;BME280;10238;49.556;10.956;2023-04-19T10:21:58;98676.44;;;10.90;100.00
20156;BME280;10238;49.556;10.956;2023-04-19T10:25:09;98665.22;;;11.14;100.00
20156;BME280;10238;49.556;10.956;2023-04-19T10:27:58;98660.06;;;11.47;100.00
20156;BME280;10238;49.556;10.956;2023-04-19T10:30:53;98651.69;;;11.77;100.00
20156;BME280;10238;49.556;10.956;2023-04-19T10:33:42;98644.72;;;12.02;100.00
20156;BME280;10238;49.556;10.956;2023-04-19T10:36:29;98632.25;;;12.36;100.00
20156;BME280;10238;49.556;10.956;2023-04-19T10:39:38;98634.59;;;12.72;100.00
20156;BME280;10238;49.556;10.956;2023-04-19T10:43:17;98621.56;;;13.19;100.00
20156;BME280;10238;49.556;10.956;2023-04-19T10:46:07;98613.91;;;13.56;100.00
20156;BME280;10238;49.556;10.956;2023-04-19T10:49:00;98606.38;;;13.84;100.00
20156;BME280;10238;49.556;10.956;2023-04-19T10:51:50;98598.47;;;14.30;100.00
20156;BME280;10238;49.556;10.956;2023-04-19T10:54:40;98596.44;;;14.71;100.00
20156;BME280;10238;49.556;10.956;2023-04-19T10:57:27;98592.34;;;14.91;100.00
20156;BME280;10238;49.556;10.956;2023-04-19T11:00:36;98581.25;;;15.25;100.00
20156;BME280;10238;49.556;10.956;2023-04-19T11:03:51;98571.34;;;15.56;100.00
20156;BME280;10238;49.556;10.956;2023-04-19T11:07:00;98570.06;;;15.81;100.00
20156;BME280;10238;49.556;10.956;2023-04-19T11:09:49;98572.03;;;16.16;100.00
20156;BME280;10238;49.556;10.956;2023-04-19T11:12:42;98563.81;;;16.32;100.00
20156;BME280;10238;49.556;10.956;2023-04-19T11:15:30;98562.81;;;16.33;96.14
20156;BME280;10238;49.556;10.956;2023-04-19T11:18:19;98552.56;;;16.86;100.00
20156;BME280;10238;49.556;10.956;2023-04-19T11:21:12;98541.59;;;17.02;92.50
20156;BME280;10238;49.556;10.956;2023-04-19T11:24:07;98539.59;;;17.47;93.08
20156;BME280;10238;49.556;10.956;2023-04-19T11:26:55;98524.84;;;17.64;90.55
20156;BME280;10238;49.556;10.956;2023-04-19T11:29:44;98526.41;;;17.79;88.97
20156;BME280;10238;49.556;10.956;2023-04-19T11:32:32;98518.81;;;17.89;78.95
20156;BME280;10238;49.556;10.956;2023-04-19T11:35:23;98512.50;;;18.37;81.77
20156;BME280;10238;49.556;10.956;2023-04-19T11:38:12;98512.41;;;18.24;77.51
20156;BME280;10238;49.556;10.956;2023-04-19T11:41:02;98512.25;;;18.32;67.29
20156;BME280;10238;49.556;10.956;2023-04-19T11:43:51;98511.47;;;18.98;73.87
20156;BME280;10238;49.556;10.956;2023-04-19T11:46:38;98503.69;;;19.30;71.35
20156;BME280;10238;49.556;10.956;2023-04-19T11:49:28;98495.59;;;19.49;69.86
20156;BME280;10238;49.556;10.956;2023-04-19T11:52:22;98487.50;;;19.69;68.95
20156;BME280;10238;49.556;10.956;2023-04-19T11:55:18;98485.41;;;19.84;63.25
20156;BME280;10238;49.556;10.956;2023-04-19T11:58:06;98479.06;;;20.35;67.91
20156;BME280;10238;49.556;10.956;2023-04-19T12:01:00;98483.91;;;20.01;55.78
20156;BME280;10238;49.556;10.956;2023-04-19T12:03:51;98481.44;;;20.19;59.83
20156;BME280;10238;49.556;10.956;2023-04-19T12:06:39;98468.63;;;20.52;59.98
20156;BME280;10238;49.556;10.956;2023-04-19T12:09:29;98471.09;;;20.91;60.99
20156;BME280;10238;49.556;10.956;2023-04-19T12:12:30;98478.78;;;21.56;62.46
20156;BME280;10238;49.556;10.956;2023-04-19T12:15:18;98460.75;;;21.75;62.11
20156;BME280;10238;49.556;10.956;2023-04-19T12:18:10;98460.75;;;21.75;56.40
20156;BME280;10238;49.556;10.956;2023-04-19T12:20:58;98458.97;;;21.62;56.66
20156;BME280;10238;49.556;10.956;2023-04-19T12:23:46;98456.84;;;21.64;53.68
20156;BME280;10238;49.556;10.956;2023-04-19T12:26:35;98450.09;;;22.16;59.60
20156;BME280;10238;49.556;10.956;2023-04-19T12:29:23;98459.34;;;21.90;51.67
20156;BME280;10238;49.556;10.956;2023-04-19T12:32:11;98472.72;;;21.61;49.69
20156;BME280;10238;49.556;10.956;2023-04-19T12:35:01;98455.28;;;21.99;55.86
20156;BME280;10238;49.556;10.956;2023-04-19T12:37:48;98455.38;;;22.11;50.78
20156;BME280;10238;49.556;10.956;2023-04-19T12:40:37;98451.53;;;22.18;49.72
20156;BME280;10238;49.556;10.956;2023-04-19T12:43:26;98448.53;;;22.44;50.53
20156;BME280;10238;49.556;10.956;2023-04-19T12:46:15;98453.31;;;21.88;49.03
20156;BME280;10238;49.556;10.956;2023-04-19T12:49:03;98458.44;;;21.96;49.32
20156;BME280;10238;49.556;10.956;2023-04-19T12:51:50;98443.09;;;22.44;51.78
20156;BME280;10238;49.556;10.956;2023-04-19T12:54:39;98446.69;;;22.02;44.29
20156;BME280;10238;49.556;10.956;2023-04-19T12:57:27;98440.34;;;22.15;49.50
20156;BME280;10238;49.556;10.956;2023-04-19T13:00:17;98442.38;;;22.19;47.33
20156;BME280;10238;49.556;10.956;2023-04-19T13:05:52;98445.16;;;22.78;46.52
20156;BME280;10238;49.556;10.956;2023-04-19T13:08:40;98450.34;;;22.32;43.53
20156;BME280;10238;49.556;10.956;2023-04-19T13:11:33;98453.50;;;22.29;46.36
20156;BME280;10238;49.556;10.956;2023-04-19T13:14:21;98449.97;;;21.68;41.36
20156;BME280;10238;49.556;10.956;2023-04-19T13:17:10;98451.00;;;22.28;46.12
20156;BME280;10238;49.556;10.956;2023-04-19T13:19:58;98430.56;;;22.79;48.94
20156;BME280;10238;49.556;10.956;2023-04-19T13:22:45;98427.91;;;23.02;47.10
20156;BME280;10238;49.556;10.956;2023-04-19T13:25:33;98437.59;;;22.69;46.36
20156;BME280;10238;49.556;10.956;2023-04-19T13:28:21;98445.94;;;21.95;41.94
20156;BME280;10238;49.556;10.956;2023-04-19T13:31:08;98435.19;;;22.43;42.86
20156;BME280;10238;49.556;10.956;2023-04-19T13:33:57;98441.91;;;22.58;44.55
20156;BME280;10238;49.556;10.956;2023-04-19T13:36:47;98440.97;;;22.46;42.98
20156;BME280;10238;49.556;10.956;2023-04-19T13:39:35;98416.38;;;22.66;45.89
20156;BME280;10238;49.556;10.956;2023-04-19T13:42:23;98428.41;;;22.52;44.24
20156;BME280;10238;49.556;10.956;2023-04-19T13:45:12;98419.88;;;22.66;46.84
20156;BME280;10238;49.556;10.956;2023-04-19T13:47:59;98432.56;;;21.82;43.46
20156;BME280;10238;49.556;10.956;2023-04-19T13:50:49;98431.00;;;21.93;45.06
20156;BME280;10238;49.556;10.956;2023-04-19T13:53:37;98434.75;;;22.28;46.94
20156;BME280;10238;49.556;10.956;2023-04-19T13:56:25;98433.84;;;21.55;46.07
20156;BME280;10238;49.556;10.956;2023-04-19T13:59:13;98421.31;;;22.03;47.88
20156;BME280;10238;49.556;10.956;2023-04-19T14:02:02;98429.97;;;21.69;44.34
20156;BME280;10238;49.556;10.956;2023-04-19T14:04:50;98433.50;;;21.45;44.87
20156;BME280;10238;49.556;10.956;2023-04-19T14:07:39;98435.00;;;21.16;46.39
20156;BME280;10238;49.556;10.956;2023-04-19T14:10:27;98441.72;;;21.32;46.85
20156;BME280;10238;49.556;10.956;2023-04-19T14:13:15;98436.47;;;20.81;45.69
20156;BME280;10238;49.556;10.956;2023-04-19T14:16:03;98434.22;;;21.59;45.12
20156;BME280;10238;49.556;10.956;2023-04-19T14:18:51;98427.78;;;21.35;45.05
20156;BME280;10238;49.556;10.956;2023-04-19T14:21:39;98430.00;;;21.20;45.41
20156;BME280;10238;49.556;10.956;2023-04-19T14:24:27;98427.69;;;20.86;44.51
20156;BME280;10238;49.556;10.956;2023-04-19T14:27:15;98429.91;;;21.02;46.39
20156;BME280;10238;49.556;10.956;2023-04-19T14:30:05;98435.03;;;21.10;46.47
20156;BME280;10238;49.556;10.956;2023-04-19T14:32:53;98425.56;;;21.01;44.20
20156;BME280;10238;49.556;10.956;2023-04-19T14:35:41;98423.47;;;20.28;44.25
20156;BME280;10238;49.556;10.956;2023-04-19T14:38:29;98423.94;;;20.87;52.93
20156;BME280;10238;49.556;10.956;2023-04-19T14:41:18;98428.31;;;21.19;49.60
20156;BME280;10238;49.556;10.956;2023-04-19T14:44:05;98433.81;;;21.06;51.57
20156;BME280;10238;49.556;10.956;2023-04-19T14:46:52;98423.91;;;21.24;49.74
20156;BME280;10238;49.556;10.956;2023-04-19T14:49:40;98423.28;;;20.10;42.13